createdAt,value
2022-08-16T00:01:14.829Z,19.80
2022-08-16T00:03:41.558Z,19.70
2022-08-16T00:06:10.132Z,19.60
2022-08-16T00:08:37.664Z,19.50
2022-08-16T00:11:06.121Z,19.60
2022-08-16T00:18:55.866Z,19.60
2022-08-16T00:21:23.903Z,19.70
2022-08-16T00:23:50.642Z,19.60
2022-08-16T00:26:34.593Z,19.50
2022-08-16T00:29:04.792Z,19.50
2022-08-16T00:31:58.857Z,19.50
2022-08-16T00:34:20.911Z,19.50
2022-08-16T00:36:48.996Z,18.90
2022-08-16T00:39:22.676Z,19.80
2022-08-16T00:41:50.208Z,19.50
2022-08-16T00:44:19.916Z,19.40
2022-08-16T00:47:05.014Z,19.50
2022-08-16T00:49:39.774Z,19.40
2022-08-16T00:52:30.032Z,19.40
2022-08-16T00:54:58.311Z,19.20
2022-08-16T00:57:25.708Z,19.20
2022-08-16T00:59:58.867Z,19.40
2022-08-16T01:05:11.191Z,19.30
2022-08-16T01:07:50.535Z,19.50
2022-08-16T01:12:46.518Z,19.20
2022-08-16T01:15:15.648Z,19.20
2022-08-16T01:17:44.715Z,19.20
2022-08-16T01:20:23.974Z,19.20
2022-08-16T01:23:03.376Z,19.20
2022-08-16T01:25:36.694Z,19.10
2022-08-16T01:28:10.860Z,19.50
2022-08-16T01:30:51.900Z,19.10
2022-08-16T01:33:20.250Z,19.10
2022-08-16T01:35:53.607Z,19.20
2022-08-16T01:38:28.236Z,19.10
2022-08-16T01:41:02.015Z,19.10
2022-08-16T01:43:31.139Z,19.10
2022-08-16T01:46:00.064Z,19.00
2022-08-16T01:51:18.659Z,19.00
2022-08-16T01:53:55.202Z,19.00
2022-08-16T01:56:25.472Z,19.10
2022-08-16T01:58:54.304Z,19.20
2022-08-16T02:01:21.536Z,19.00
2022-08-16T02:03:50.510Z,19.10
2022-08-16T02:06:33.877Z,19.20
2022-08-16T02:09:05.242Z,19.00
2022-08-16T02:11:43.001Z,18.90
2022-08-16T02:14:18.466Z,19.10
2022-08-16T02:16:48.528Z,18.90
2022-08-16T02:19:16.962Z,18.90
2022-08-16T02:22:08.904Z,18.90
2022-08-16T02:24:40.647Z,19.00
2022-08-16T02:27:09.429Z,18.90
2022-08-16T02:29:36.825Z,18.90
2022-08-16T02:32:50.649Z,18.90
2022-08-16T02:37:23.705Z,19.00
2022-08-16T02:40:11.599Z,18.80
2022-08-16T02:42:39.102Z,18.90
2022-08-16T02:45:06.676Z,18.80
2022-08-16T02:48:00.455Z,18.90
2022-08-16T02:50:54.634Z,18.80
2022-08-16T02:53:11.503Z,18.90
2022-08-16T02:55:41.345Z,18.80
2022-08-16T02:58:09.137Z,18.80
2022-08-16T03:03:04.816Z,18.30
2022-08-16T03:05:37.450Z,18.60
2022-08-16T03:08:05.446Z,18.50
2022-08-16T03:13:20.954Z,18.50
2022-08-16T03:15:49.740Z,18.60
2022-08-16T03:18:34.142Z,18.70
2022-08-16T03:21:04.033Z,18.50
2022-08-16T03:23:35.885Z,18.70
2022-08-16T03:26:02.975Z,18.70
2022-08-16T03:28:30.769Z,18.70
2022-08-16T03:30:57.459Z,18.90
2022-08-16T03:35:57.192Z,18.80
2022-08-16T03:41:03.023Z,19.00
2022-08-16T03:43:51.706Z,18.70
2022-08-16T03:46:47.997Z,18.50
2022-08-16T03:49:11.327Z,18.70
2022-08-16T03:59:25.998Z,18.70
2022-08-16T04:01:56.850Z,18.60
2022-08-16T04:04:32.586Z,18.60
2022-08-16T04:07:00.642Z,18.60
2022-08-16T04:09:31.126Z,18.50
2022-08-16T04:12:03.447Z,18.50
2022-08-16T04:14:38.615Z,18.60
2022-08-16T04:17:14.875Z,18.70
2022-08-16T04:19:45.535Z,18.30
2022-08-16T04:22:17.429Z,18.80
2022-08-16T04:24:54.429Z,20.10
2022-08-16T04:27:22.279Z,19.10
2022-08-16T04:29:52.561Z,18.70
2022-08-16T04:34:46.845Z,18.90
2022-08-16T04:37:14.117Z,19.00
2022-08-16T04:39:47.371Z,18.90
2022-08-16T04:42:25.909Z,19.10
2022-08-16T04:44:55.693Z,19.10
2022-08-16T04:47:25.566Z,19.30
2022-08-16T04:52:33.186Z,19.50
2022-08-16T04:55:05.800Z,19.90
2022-08-16T04:57:32.762Z,20.00
2022-08-16T05:00:31.215Z,20.70
2022-08-16T05:02:54.857Z,21.10
2022-08-16T05:05:24.006Z,22.00
2022-08-16T05:07:58.370Z,21.70
2022-08-16T05:10:27.455Z,22.70
2022-08-16T05:15:24.499Z,23.10
2022-08-16T05:17:55.494Z,23.40
2022-08-16T05:20:38.643Z,23.20
2022-08-16T05:25:48.435Z,24.40
2022-08-16T05:28:15.925Z,24.30
2022-08-16T05:30:43.685Z,24.70
2022-08-16T05:33:16.652Z,25.00
2022-08-16T05:35:44.953Z,24.20
2022-08-16T05:38:32.268Z,25.20
2022-08-16T05:41:04.557Z,24.80
2022-08-16T05:43:32.234Z,25.20
2022-08-16T05:46:29.028Z,25.60
2022-08-16T05:49:03.129Z,26.00
2022-08-16T05:51:38.690Z,25.90
2022-08-16T05:54:07.505Z,25.30
2022-08-16T05:56:37.271Z,25.40
2022-08-16T05:59:06.348Z,25.30
2022-08-16T06:01:38.016Z,25.20
2022-08-16T06:04:12.821Z,25.00
2022-08-16T06:06:43.489Z,25.20
2022-08-16T06:09:24.698Z,25.20
2022-08-16T06:11:52.379Z,24.90
2022-08-16T06:14:19.585Z,24.50
2022-08-16T06:16:50.853Z,24.50
2022-08-16T06:19:17.874Z,24.30
2022-08-16T06:21:44.953Z,24.10
2022-08-16T06:24:54.242Z,24.20
2022-08-16T06:26:59.974Z,24.10
2022-08-16T06:29:26.663Z,24.30
2022-08-16T06:31:54.203Z,24.20
2022-08-16T06:34:53.262Z,24.20
2022-08-16T06:37:10.353Z,24.10
2022-08-16T06:39:46.717Z,24.00
2022-08-16T06:42:18.513Z,23.90
2022-08-16T06:44:46.982Z,23.80
2022-08-16T06:47:17.114Z,23.80
2022-08-16T06:52:58.437Z,24.00
2022-08-16T06:55:13.638Z,24.00
2022-08-16T06:57:41.954Z,24.00
2022-08-16T07:00:24.125Z,24.00
2022-08-16T07:02:54.345Z,23.60
2022-08-16T07:05:27.350Z,23.80
2022-08-16T07:08:11.350Z,23.80
2022-08-16T07:10:38.601Z,23.80
2022-08-16T07:13:11.992Z,24.00
2022-08-16T07:15:50.144Z,23.90
2022-08-16T07:18:24.489Z,24.00
2022-08-16T07:20:52.917Z,24.20
2022-08-16T07:23:21.647Z,24.30
2022-08-16T07:26:05.517Z,24.50
2022-08-16T07:28:35.283Z,24.50
2022-08-16T07:31:02.582Z,24.90
2022-08-16T07:33:53.583Z,25.90
2022-08-16T07:36:23.986Z,25.90
2022-08-16T07:38:51.604Z,26.80
2022-08-16T07:41:18.946Z,27.50
2022-08-16T07:43:47.557Z,27.80
2022-08-16T07:46:39.059Z,28.60
2022-08-16T07:49:05.594Z,29.00
2022-08-16T07:51:38.380Z,28.40
2022-08-16T07:54:10.222Z,28.80
2022-08-16T07:59:04.727Z,29.20
2022-08-16T08:01:31.603Z,29.50
2022-08-16T08:04:00.290Z,30.00
2022-08-16T08:06:32.475Z,30.40
2022-08-16T08:09:00.044Z,30.80
2022-08-16T08:11:28.836Z,31.10
2022-08-16T08:13:57.204Z,31.20
2022-08-16T08:16:30.936Z,31.90
2022-08-16T08:19:00.977Z,32.40
2022-08-16T08:22:01.136Z,32.80
2022-08-16T08:24:18.708Z,33.00
2022-08-16T08:26:50.014Z,32.60
2022-08-16T08:29:17.592Z,32.50
2022-08-16T08:31:51.567Z,33.00
2022-08-16T08:34:18.736Z,33.40
2022-08-16T08:36:47.962Z,33.30
2022-08-16T08:39:15.357Z,32.70
2022-08-16T08:41:43.326Z,32.90
2022-08-16T08:44:28.407Z,33.50
2022-08-16T08:47:01.827Z,34.00
2022-08-16T08:49:46.226Z,34.10
2022-08-16T08:52:34.216Z,33.50
2022-08-16T08:55:05.038Z,33.90
2022-08-16T08:57:38.339Z,34.20
2022-08-16T09:00:13.022Z,33.50
2022-08-16T09:02:41.306Z,33.60
2022-08-16T09:05:15.636Z,34.20
2022-08-16T09:08:01.837Z,34.10
2022-08-16T09:10:32.179Z,34.40
2022-08-16T09:13:01.398Z,34.50
2022-08-16T09:15:32.884Z,34.20
2022-08-16T09:18:00.997Z,34.90
2022-08-16T09:20:29.933Z,34.40
2022-08-16T09:23:01.756Z,33.70
2022-08-16T09:25:33.821Z,33.60
2022-08-16T09:28:09.066Z,33.50
2022-08-16T09:30:43.469Z,34.10
2022-08-16T09:33:17.834Z,34.70
2022-08-16T09:35:47.278Z,35.20
2022-08-16T09:38:32.026Z,34.20
2022-08-16T09:41:00.323Z,34.60
2022-08-16T09:43:53.315Z,35.30
2022-08-16T09:46:44.561Z,36.00
2022-08-16T09:49:03.691Z,35.70
2022-08-16T09:51:37.335Z,35.90
2022-08-16T09:54:05.657Z,36.30
2022-08-16T09:56:34.462Z,36.90
2022-08-16T09:59:07.426Z,37.40
2022-08-16T10:01:35.988Z,37.60
2022-08-16T10:04:04.564Z,36.90
2022-08-16T10:06:34.870Z,36.10
2022-08-16T10:09:05.298Z,36.20
2022-08-16T10:11:52.585Z,36.40
2022-08-16T10:14:19.821Z,36.50
2022-08-16T10:16:48.835Z,36.10
2022-08-16T10:19:19.365Z,35.20
2022-08-16T10:21:46.385Z,34.90
2022-08-16T10:24:28.511Z,35.00
2022-08-16T10:27:16.309Z,35.50
2022-08-16T10:30:00.161Z,36.10
2022-08-16T10:32:32.391Z,36.70
2022-08-16T10:34:59.475Z,37.50
2022-08-16T10:37:32.641Z,37.30
2022-08-16T10:40:05.979Z,36.60
2022-08-16T10:42:33.570Z,35.80
2022-08-16T10:45:01.896Z,36.20
2022-08-16T10:47:33.203Z,36.70
2022-08-16T10:50:06.935Z,36.00
2022-08-16T10:52:46.961Z,35.80
2022-08-16T10:58:11.669Z,37.60
2022-08-16T11:00:40.292Z,37.10
2022-08-16T11:03:42.320Z,35.50
2022-08-16T11:05:59.457Z,34.20
2022-08-16T11:08:35.939Z,33.80
2022-08-16T11:11:12.940Z,34.40
2022-08-16T11:14:10.630Z,35.50
2022-08-16T11:19:22.614Z,36.70
2022-08-16T11:24:45.073Z,36.40
2022-08-16T11:27:19.830Z,36.70
2022-08-16T11:29:49.203Z,37.00
2022-08-16T11:32:20.191Z,36.80
2022-08-16T11:35:10.645Z,36.40
2022-08-16T11:40:33.229Z,36.10
2022-08-16T11:43:01.029Z,36.90
2022-08-16T11:45:28.485Z,36.70
2022-08-16T11:48:00.406Z,36.60
2022-08-16T11:50:27.256Z,36.90
2022-08-16T11:52:54.056Z,36.50
2022-08-16T11:55:23.490Z,35.60
2022-08-16T11:57:51.478Z,33.80
2022-08-16T12:00:33.949Z,32.80
2022-08-16T12:03:11.039Z,33.40
2022-08-16T12:05:39.738Z,33.90
2022-08-16T12:08:08.673Z,33.80
2022-08-16T12:10:38.254Z,32.70
2022-08-16T12:13:05.371Z,31.90
2022-08-16T12:15:32.146Z,31.70
2022-08-16T12:18:02.005Z,30.90
2022-08-16T12:20:35.043Z,31.50
2022-08-16T12:23:02.591Z,33.20
2022-08-16T12:25:31.500Z,34.30
2022-08-16T12:27:59.209Z,34.90
2022-08-16T12:30:36.244Z,35.00
2022-08-16T12:33:07.435Z,33.60
2022-08-16T12:35:36.794Z,33.60
2022-08-16T12:38:37.781Z,33.20
2022-08-16T12:40:57.111Z,32.60
2022-08-16T12:43:24.643Z,32.90
2022-08-16T12:45:54.401Z,32.90
2022-08-16T12:48:44.332Z,32.40
2022-08-16T12:51:23.804Z,32.10
2022-08-16T12:53:52.548Z,31.90
2022-08-16T12:56:22.176Z,31.80
2022-08-16T12:58:53.018Z,31.60
2022-08-16T13:01:26.115Z,31.50
2022-08-16T13:04:08.191Z,31.50
2022-08-16T13:06:40.385Z,31.30
2022-08-16T13:09:21.548Z,31.10
2022-08-16T13:12:00.980Z,31.10
2022-08-16T13:14:33.883Z,30.90
2022-08-16T13:17:02.012Z,30.70
2022-08-16T13:19:44.215Z,30.40
2022-08-16T13:22:18.630Z,30.20
2022-08-16T13:24:46.647Z,30.00
2022-08-16T13:27:13.835Z,29.90
2022-08-16T13:29:44.097Z,30.00
2022-08-16T13:32:40.135Z,30.20
2022-08-16T13:34:57.974Z,30.50
2022-08-16T13:37:25.411Z,30.60
2022-08-16T13:39:52.964Z,30.60
2022-08-16T13:42:19.807Z,30.50
2022-08-16T13:44:55.949Z,30.60
2022-08-16T13:49:56.684Z,30.30
2022-08-16T13:52:25.010Z,30.10
2022-08-16T13:54:52.722Z,30.10
2022-08-16T13:57:20.035Z,30.10
2022-08-16T13:59:50.043Z,30.20
2022-08-16T14:02:17.354Z,30.30
2022-08-16T14:04:45.725Z,30.30
2022-08-16T14:07:20.023Z,30.30
2022-08-16T14:09:55.213Z,30.40
2022-08-16T14:12:25.278Z,30.20
2022-08-16T14:14:57.288Z,30.20
2022-08-16T14:17:26.129Z,30.10
2022-08-16T14:22:31.261Z,30.10
2022-08-16T14:24:59.743Z,30.00
2022-08-16T14:27:29.108Z,29.90
2022-08-16T14:29:58.391Z,29.80
2022-08-16T14:32:33.082Z,29.70
2022-08-16T14:35:02.213Z,29.50
2022-08-16T14:37:29.688Z,29.70
2022-08-16T14:40:00.082Z,29.80
2022-08-16T14:42:28.260Z,29.80
2022-08-16T14:44:55.013Z,29.80
2022-08-16T14:47:22.675Z,29.80
2022-08-16T14:49:49.692Z,29.70
2022-08-16T14:52:44.453Z,30.70
2022-08-16T14:55:11.707Z,29.70
2022-08-16T14:57:41.199Z,29.70
2022-08-16T15:00:11.498Z,29.60
2022-08-16T15:02:40.377Z,29.50
2022-08-16T15:05:09.513Z,29.30
2022-08-16T15:10:08.606Z,29.40
2022-08-16T15:12:50.217Z,29.30
2022-08-16T15:15:19.795Z,29.30
2022-08-16T15:17:56.758Z,29.40
2022-08-16T15:20:26.182Z,29.20
2022-08-16T15:22:57.107Z,29.00
2022-08-16T15:25:29.209Z,28.90
2022-08-16T15:28:01.596Z,28.90
2022-08-16T15:30:58.510Z,28.90
2022-08-16T15:33:18.433Z,28.50
2022-08-16T15:35:49.525Z,28.90
2022-08-16T15:43:39.413Z,28.60
2022-08-16T15:46:35.104Z,28.60
2022-08-16T15:49:16.039Z,28.60
2022-08-16T15:51:46.436Z,28.50
2022-08-16T15:54:21.435Z,28.50
2022-08-16T15:59:27.174Z,28.40
2022-08-16T16:06:55.097Z,28.30
2022-08-16T16:09:26.103Z,28.30
2022-08-16T16:14:30.490Z,28.20
2022-08-16T16:24:31.389Z,28.10
2022-08-16T16:29:25.527Z,28.10
2022-08-16T16:31:59.462Z,28.10
2022-08-16T16:34:32.295Z,28.00
2022-08-16T16:37:02.479Z,27.80
2022-08-16T16:39:32.772Z,28.00
2022-08-16T16:41:59.713Z,27.90
2022-08-16T16:44:33.487Z,27.90
2022-08-16T16:47:03.700Z,27.90
2022-08-16T16:49:32.309Z,28.00
2022-08-16T16:52:06.999Z,27.80
2022-08-16T16:54:34.884Z,27.60
2022-08-16T16:57:01.778Z,27.90
2022-08-16T16:59:28.730Z,27.90
2022-08-16T17:02:38.180Z,27.80
2022-08-16T17:04:45.278Z,27.80
2022-08-16T17:09:40.601Z,27.70
2022-08-16T17:12:08.993Z,27.70
2022-08-16T17:14:35.893Z,27.60
2022-08-16T17:17:08.519Z,27.60
2022-08-16T17:19:41.039Z,27.60
2022-08-16T17:22:15.195Z,27.50
2022-08-16T17:24:45.062Z,27.50
2022-08-16T17:27:17.957Z,27.40
2022-08-16T17:29:46.653Z,27.40
2022-08-16T17:32:33.550Z,27.30
2022-08-16T17:35:10.228Z,27.40
2022-08-16T17:37:50.838Z,27.10
2022-08-16T17:40:40.809Z,27.30
2022-08-16T17:43:08.808Z,27.30
2022-08-16T17:45:35.964Z,27.20
2022-08-16T17:48:02.968Z,27.10
2022-08-16T17:50:29.699Z,27.00
2022-08-16T17:53:00.128Z,26.90
2022-08-16T17:55:30.233Z,26.90
2022-08-16T17:58:00.295Z,26.80
2022-08-16T18:00:29.020Z,26.60
2022-08-16T18:02:57.741Z,26.50
2022-08-16T18:05:26.523Z,26.60
2022-08-16T18:07:53.672Z,26.40
2022-08-16T18:10:33.107Z,26.30
2022-08-16T18:13:03.731Z,26.90
2022-08-16T18:15:32.041Z,26.20
2022-08-16T18:18:00.025Z,26.10
2022-08-16T18:20:45.781Z,26.10
2022-08-16T18:23:15.315Z,25.90
2022-08-16T18:25:48.087Z,25.80
2022-08-16T18:28:15.529Z,25.80
2022-08-16T18:30:50.916Z,25.70
2022-08-16T18:33:19.296Z,25.60
2022-08-16T18:35:46.454Z,25.50
2022-08-16T18:38:13.268Z,25.40
2022-08-16T18:40:40.756Z,25.30
2022-08-16T18:43:10.557Z,25.20
2022-08-16T18:45:42.603Z,25.10
2022-08-16T18:48:11.137Z,25.00
2022-08-16T18:51:03.446Z,24.90
2022-08-16T18:53:28.078Z,24.90
2022-08-16T18:55:57.986Z,24.90
2022-08-16T18:58:26.345Z,24.60
2022-08-16T19:00:56.639Z,24.80
2022-08-16T19:03:27.215Z,24.70
2022-08-16T19:05:56.835Z,24.60
2022-08-16T19:13:23.501Z,24.30
2022-08-16T19:15:52.925Z,24.30
2022-08-16T19:18:21.214Z,24.30
2022-08-16T19:20:48.530Z,24.20
2022-08-16T19:23:18.178Z,24.20
2022-08-16T19:25:48.568Z,24.10
2022-08-16T19:28:49.541Z,24.00
2022-08-16T19:31:07.996Z,23.90
2022-08-16T19:33:34.857Z,23.80
2022-08-16T19:36:06.168Z,23.80
2022-08-16T19:38:33.253Z,23.80
2022-08-16T19:41:00.836Z,23.70
2022-08-16T19:43:27.779Z,24.10
2022-08-16T19:45:54.671Z,23.70
2022-08-16T19:48:22.327Z,23.50
2022-08-16T19:50:49.127Z,23.40
2022-08-16T19:53:18.833Z,23.50
2022-08-16T19:55:47.346Z,23.60
2022-08-16T19:58:16.165Z,23.50
2022-08-16T20:00:44.312Z,23.20
2022-08-16T20:03:14.970Z,23.30
2022-08-16T20:05:45.937Z,23.30
2022-08-16T20:08:13.157Z,23.30
2022-08-16T20:10:41.435Z,22.80
2022-08-16T20:13:13.474Z,23.10
2022-08-16T20:15:41.442Z,23.30
2022-08-16T20:18:17.232Z,23.10
2022-08-16T20:20:53.044Z,23.10
2022-08-16T20:23:24.325Z,23.10
2022-08-16T20:25:54.752Z,22.80
2022-08-16T20:28:51.792Z,23.00
2022-08-16T20:31:09.010Z,22.90
2022-08-16T20:36:04.106Z,22.50
2022-08-16T20:38:31.016Z,22.90
2022-08-16T20:40:58.033Z,22.70
2022-08-16T20:45:51.814Z,22.60
2022-08-16T20:50:46.138Z,22.50
2022-08-16T20:53:13.554Z,22.50
2022-08-16T20:58:07.902Z,22.40
2022-08-16T21:00:34.816Z,22.30
2022-08-16T21:03:05.633Z,22.10
2022-08-16T21:10:28.279Z,21.80
2022-08-16T21:12:58.667Z,22.10
2022-08-16T21:15:27.218Z,22.20
2022-08-16T21:17:54.143Z,22.10
2022-08-16T21:20:22.237Z,22.10
2022-08-16T21:22:52.937Z,22.00
2022-08-16T21:25:23.149Z,22.10
2022-08-16T21:28:40.562Z,22.20
2022-08-16T21:30:37.899Z,22.10
2022-08-16T21:33:06.596Z,21.90
2022-08-16T21:35:34.648Z,21.90
2022-08-16T21:38:29.419Z,22.00
2022-08-16T21:40:48.555Z,21.90
2022-08-16T21:43:22.255Z,21.70
2022-08-16T21:48:33.600Z,21.90
2022-08-16T21:51:01.700Z,21.10
2022-08-16T21:53:28.961Z,21.70
2022-08-16T21:55:57.449Z,21.60
2022-08-16T21:58:25.426Z,21.90
2022-08-16T22:00:52.896Z,21.30
2022-08-16T22:03:20.445Z,21.50
2022-08-16T22:06:10.083Z,21.50
2022-08-16T22:08:35.521Z,21.60
2022-08-16T22:11:09.423Z,21.60
2022-08-16T22:13:37.458Z,21.60
2022-08-16T22:16:07.404Z,21.60
2022-08-16T22:21:01.293Z,21.50
2022-08-16T22:23:29.008Z,21.10
2022-08-16T22:25:56.022Z,21.40
2022-08-16T22:28:26.939Z,21.20
2022-08-16T22:30:54.341Z,21.10
2022-08-16T22:33:23.190Z,21.30
2022-08-16T22:35:53.070Z,21.30
2022-08-16T22:38:54.610Z,21.30
2022-08-16T22:43:34.451Z,21.50
2022-08-16T22:46:02.202Z,21.20
2022-08-16T22:55:57.171Z,21.30
2022-08-16T22:58:33.960Z,21.10
2022-08-16T23:01:04.998Z,21.00
2022-08-16T23:03:31.732Z,21.10
2022-08-16T23:05:59.735Z,21.00
2022-08-16T23:08:38.168Z,21.30
2022-08-16T23:11:08.296Z,20.90
2022-08-16T23:13:35.217Z,21.00
2022-08-16T23:16:10.804Z,20.80
2022-08-16T23:18:39.310Z,20.90
2022-08-16T23:21:09.519Z,20.60
2022-08-16T23:23:37.550Z,20.90
2022-08-16T23:26:45.140Z,20.90
2022-08-16T23:31:21.127Z,20.90
2022-08-16T23:33:48.098Z,20.80
2022-08-16T23:36:15.022Z,20.70
2022-08-16T23:38:42.293Z,20.70
2022-08-16T23:41:11.779Z,20.70
2022-08-16T23:43:42.335Z,20.00
2022-08-16T23:46:13.291Z,20.60
2022-08-16T23:49:58.644Z,20.90
2022-08-16T23:58:54.333Z,20.60
